sensor_id;sensor_type;location;lat;lon;timestamp;temperature;humidity
14985;DHT22;7588;62.368;25.902;2022-07-06T00:01:59;10.60;99.90
14985;DHT22;7588;62.368;25.902;2022-07-06T00:04:24;10.70;99.90
14985;DHT22;7588;62.368;25.902;2022-07-06T00:06:50;10.70;99.90
14985;DHT22;7588;62.368;25.902;2022-07-06T00:09:16;10.70;99.90
14985;DHT22;7588;62.368;25.902;2022-07-06T00:11:42;10.80;99.90
14985;DHT22;7588;62.368;25.902;2022-07-06T00:14:07;10.80;99.90
14985;DHT22;7588;62.368;25.902;2022-07-06T00:16:33;11.00;99.90
14985;DHT22;7588;62.368;25.902;2022-07-06T00:18:59;11.30;99.90
14985;DHT22;7588;62.368;25.902;2022-07-06T00:21:25;11.50;99.90
14985;DHT22;7588;62.368;25.902;2022-07-06T00:23:51;11.70;99.90
14985;DHT22;7588;62.368;25.902;2022-07-06T00:26:18;11.80;99.90
14985;DHT22;7588;62.368;25.902;2022-07-06T00:28:44;11.80;99.90
14985;DHT22;7588;62.368;25.902;2022-07-06T00:31:10;11.90;99.90
14985;DHT22;7588;62.368;25.902;2022-07-06T00:33:36;11.90;99.90
14985;DHT22;7588;62.368;25.902;2022-07-06T00:36:02;12.00;99.90
14985;DHT22;7588;62.368;25.902;2022-07-06T00:38:28;12.00;99.90
14985;DHT22;7588;62.368;25.902;2022-07-06T00:40:53;12.00;99.90
14985;DHT22;7588;62.368;25.902;2022-07-06T00:43:19;11.90;99.90
14985;DHT22;7588;62.368;25.902;2022-07-06T00:45:45;11.80;99.90
14985;DHT22;7588;62.368;25.902;2022-07-06T00:48:11;11.70;99.90
14985;DHT22;7588;62.368;25.902;2022-07-06T00:50:38;11.60;99.90
14985;DHT22;7588;62.368;25.902;2022-07-06T00:53:05;11.50;99.90
14985;DHT22;7588;62.368;25.902;2022-07-06T00:55:33;11.40;99.90
14985;DHT22;7588;62.368;25.902;2022-07-06T00:58:03;11.30;99.90
14985;DHT22;7588;62.368;25.902;2022-07-06T01:00:30;11.20;99.90
14985;DHT22;7588;62.368;25.902;2022-07-06T01:02:56;11.30;99.90
14985;DHT22;7588;62.368;25.902;2022-07-06T01:05:22;11.30;99.90
14985;DHT22;7588;62.368;25.902;2022-07-06T01:07:50;11.30;99.90
14985;DHT22;7588;62.368;25.902;2022-07-06T01:10:17;11.20;99.90
14985;DHT22;7588;62.368;25.902;2022-07-06T01:12:44;11.20;99.90
14985;DHT22;7588;62.368;25.902;2022-07-06T01:15:14;11.10;99.90
14985;DHT22;7588;62.368;25.902;2022-07-06T01:17:40;11.10;99.90
14985;DHT22;7588;62.368;25.902;2022-07-06T01:20:23;11.10;99.90
14985;DHT22;7588;62.368;25.902;2022-07-06T01:22:51;11.20;99.90
14985;DHT22;7588;62.368;25.902;2022-07-06T01:25:18;11.20;99.90
14985;DHT22;7588;62.368;25.902;2022-07-06T01:27:44;11.20;99.90
14985;DHT22;7588;62.368;25.902;2022-07-06T01:30:15;11.20;99.90
14985;DHT22;7588;62.368;25.902;2022-07-06T01:32:42;11.20;99.90
14985;DHT22;7588;62.368;25.902;2022-07-06T01:35:11;11.20;99.90
14985;DHT22;7588;62.368;25.902;2022-07-06T01:37:37;11.30;99.90
14985;DHT22;7588;62.368;25.902;2022-07-06T01:40:06;11.30;99.90
14985;DHT22;7588;62.368;25.902;2022-07-06T01:42:32;11.50;99.90
14985;DHT22;7588;62.368;25.902;2022-07-06T01:44:58;11.60;99.90
14985;DHT22;7588;62.368;25.902;2022-07-06T01:47:24;11.70;99.90
14985;DHT22;7588;62.368;25.902;2022-07-06T01:49:50;11.70;99.90
14985;DHT22;7588;62.368;25.902;2022-07-06T01:52:16;11.70;99.90
14985;DHT22;7588;62.368;25.902;2022-07-06T01:54:42;11.70;99.90
14985;DHT22;7588;62.368;25.902;2022-07-06T01:57:08;11.80;99.90
14985;DHT22;7588;62.368;25.902;2022-07-06T01:59:34;11.80;99.90
14985;DHT22;7588;62.368;25.902;2022-07-06T02:02:00;11.90;99.90
14985;DHT22;7588;62.368;25.902;2022-07-06T02:04:25;11.90;99.90
14985;DHT22;7588;62.368;25.902;2022-07-06T02:06:51;11.90;99.90
14985;DHT22;7588;62.368;25.902;2022-07-06T02:09:17;12.00;99.90
14985;DHT22;7588;62.368;25.902;2022-07-06T02:11:43;12.10;99.90
14985;DHT22;7588;62.368;25.902;2022-07-06T02:14:09;12.30;99.90
14985;DHT22;7588;62.368;25.902;2022-07-06T02:16:35;12.40;99.90
14985;DHT22;7588;62.368;25.902;2022-07-06T02:19:01;12.50;99.90
14985;DHT22;7588;62.368;25.902;2022-07-06T02:21:27;12.60;99.90
14985;DHT22;7588;62.368;25.902;2022-07-06T02:23:53;12.80;99.90
14985;DHT22;7588;62.368;25.902;2022-07-06T02:26:18;12.90;99.90
14985;DHT22;7588;62.368;25.902;2022-07-06T02:28:44;12.90;99.90
14985;DHT22;7588;62.368;25.902;2022-07-06T02:31:11;13.00;99.90
14985;DHT22;7588;62.368;25.902;2022-07-06T02:33:39;13.10;99.90
14985;DHT22;7588;62.368;25.902;2022-07-06T02:36:05;13.10;99.90
14985;DHT22;7588;62.368;25.902;2022-07-06T02:38:31;13.20;99.90
14985;DHT22;7588;62.368;25.902;2022-07-06T02:40:57;13.30;99.90
14985;DHT22;7588;62.368;25.902;2022-07-06T02:43:22;13.30;99.90
14985;DHT22;7588;62.368;25.902;2022-07-06T02:45:48;13.40;99.90
14985;DHT22;7588;62.368;25.902;2022-07-06T02:48:15;13.40;99.90
14985;DHT22;7588;62.368;25.902;2022-07-06T02:50:41;13.50;99.90
14985;DHT22;7588;62.368;25.902;2022-07-06T02:53:07;13.50;99.90
14985;DHT22;7588;62.368;25.902;2022-07-06T02:55:32;13.50;99.90
14985;DHT22;7588;62.368;25.902;2022-07-06T02:57:58;13.50;99.90
14985;DHT22;7588;62.368;25.902;2022-07-06T03:00:24;13.60;99.90
14985;DHT22;7588;62.368;25.902;2022-07-06T03:02:50;13.70;99.90
14985;DHT22;7588;62.368;25.902;2022-07-06T03:05:15;13.70;99.90
14985;DHT22;7588;62.368;25.902;2022-07-06T03:07:41;13.90;99.90
14985;DHT22;7588;62.368;25.902;2022-07-06T03:10:07;14.00;99.90
14985;DHT22;7588;62.368;25.902;2022-07-06T03:12:33;14.00;99.90
14985;DHT22;7588;62.368;25.902;2022-07-06T03:14:59;14.10;99.90
14985;DHT22;7588;62.368;25.902;2022-07-06T03:17:24;14.10;99.90
14985;DHT22;7588;62.368;25.902;2022-07-06T03:19:50;14.20;99.90
14985;DHT22;7588;62.368;25.902;2022-07-06T03:22:18;14.20;99.90
14985;DHT22;7588;62.368;25.902;2022-07-06T03:24:44;14.30;99.90
14985;DHT22;7588;62.368;25.902;2022-07-06T03:27:10;14.30;99.90
14985;DHT22;7588;62.368;25.902;2022-07-06T03:29:35;14.40;99.90
14985;DHT22;7588;62.368;25.902;2022-07-06T03:32:01;14.40;99.90
14985;DHT22;7588;62.368;25.902;2022-07-06T03:34:27;14.40;99.90
14985;DHT22;7588;62.368;25.902;2022-07-06T03:36:53;14.50;99.90
14985;DHT22;7588;62.368;25.902;2022-07-06T03:39:18;14.50;99.90
14985;DHT22;7588;62.368;25.902;2022-07-06T03:41:44;14.50;99.90
14985;DHT22;7588;62.368;25.902;2022-07-06T03:44:10;14.60;99.90
14985;DHT22;7588;62.368;25.902;2022-07-06T03:46:35;14.60;99.90
14985;DHT22;7588;62.368;25.902;2022-07-06T03:49:01;14.70;99.90
14985;DHT22;7588;62.368;25.902;2022-07-06T03:51:27;14.70;99.90
14985;DHT22;7588;62.368;25.902;2022-07-06T03:53:52;14.80;99.90
14985;DHT22;7588;62.368;25.902;2022-07-06T03:56:18;14.90;99.90
14985;DHT22;7588;62.368;25.902;2022-07-06T03:58:53;15.00;99.90
14985;DHT22;7588;62.368;25.902;2022-07-06T04:01:19;15.00;99.90
14985;DHT22;7588;62.368;25.902;2022-07-06T04:03:44;15.10;99.90
14985;DHT22;7588;62.368;25.902;2022-07-06T04:06:10;15.10;99.90
14985;DHT22;7588;62.368;25.902;2022-07-06T04:08:36;15.20;99.90
14985;DHT22;7588;62.368;25.902;2022-07-06T04:11:02;15.30;99.90
14985;DHT22;7588;62.368;25.902;2022-07-06T04:13:28;15.30;99.90
14985;DHT22;7588;62.368;25.902;2022-07-06T04:15:54;15.50;99.90
14985;DHT22;7588;62.368;25.902;2022-07-06T04:18:20;15.50;99.90
14985;DHT22;7588;62.368;25.902;2022-07-06T04:20:45;15.60;99.90
14985;DHT22;7588;62.368;25.902;2022-07-06T04:23:11;15.80;99.90
14985;DHT22;7588;62.368;25.902;2022-07-06T04:25:37;16.40;99.90
14985;DHT22;7588;62.368;25.902;2022-07-06T04:28:03;16.60;99.90
14985;DHT22;7588;62.368;25.902;2022-07-06T04:30:29;16.60;99.90
14985;DHT22;7588;62.368;25.902;2022-07-06T04:32:55;16.50;99.90
14985;DHT22;7588;62.368;25.902;2022-07-06T04:35:23;16.50;99.90
14985;DHT22;7588;62.368;25.902;2022-07-06T04:37:49;16.60;99.90
14985;DHT22;7588;62.368;25.902;2022-07-06T04:40:14;17.00;99.90
14985;DHT22;7588;62.368;25.902;2022-07-06T04:42:40;17.80;99.90
14985;DHT22;7588;62.368;25.902;2022-07-06T04:45:07;19.00;99.90
14985;DHT22;7588;62.368;25.902;2022-07-06T04:47:33;19.90;99.90
14985;DHT22;7588;62.368;25.902;2022-07-06T04:49:58;20.30;99.90
14985;DHT22;7588;62.368;25.902;2022-07-06T04:52:24;20.30;99.90
14985;DHT22;7588;62.368;25.902;2022-07-06T04:54:50;20.30;99.90
14985;DHT22;7588;62.368;25.902;2022-07-06T04:57:15;20.50;99.90
14985;DHT22;7588;62.368;25.902;2022-07-06T04:59:41;20.60;99.90
14985;DHT22;7588;62.368;25.902;2022-07-06T05:02:07;21.10;99.30
14985;DHT22;7588;62.368;25.902;2022-07-06T05:04:33;21.40;98.70
14985;DHT22;7588;62.368;25.902;2022-07-06T05:06:59;21.50;97.50
14985;DHT22;7588;62.368;25.902;2022-07-06T05:09:24;21.90;96.60
14985;DHT22;7588;62.368;25.902;2022-07-06T05:11:50;21.80;96.40
14985;DHT22;7588;62.368;25.902;2022-07-06T05:14:16;22.10;95.90
14985;DHT22;7588;62.368;25.902;2022-07-06T05:16:42;22.60;94.70
14985;DHT22;7588;62.368;25.902;2022-07-06T05:19:08;22.90;93.00
14985;DHT22;7588;62.368;25.902;2022-07-06T05:21:33;22.80;93.00
14985;DHT22;7588;62.368;25.902;2022-07-06T05:23:59;22.70;92.90
14985;DHT22;7588;62.368;25.902;2022-07-06T05:26:25;22.80;92.30
14985;DHT22;7588;62.368;25.902;2022-07-06T05:28:51;23.30;90.00
14985;DHT22;7588;62.368;25.902;2022-07-06T05:31:16;22.60;92.30
14985;DHT22;7588;62.368;25.902;2022-07-06T05:33:42;22.10;92.30
14985;DHT22;7588;62.368;25.902;2022-07-06T05:36:08;22.40;92.50
14985;DHT22;7588;62.368;25.902;2022-07-06T05:38:34;21.80;94.00
14985;DHT22;7588;62.368;25.902;2022-07-06T05:40:59;21.40;94.50
14985;DHT22;7588;62.368;25.902;2022-07-06T05:43:25;21.40;97.20
14985;DHT22;7588;62.368;25.902;2022-07-06T05:45:51;21.50;96.30
14985;DHT22;7588;62.368;25.902;2022-07-06T05:48:17;22.20;94.50
14985;DHT22;7588;62.368;25.902;2022-07-06T05:51:01;22.90;93.40
14985;DHT22;7588;62.368;25.902;2022-07-06T05:53:27;23.30;90.80
14985;DHT22;7588;62.368;25.902;2022-07-06T05:55:53;23.90;86.50
14985;DHT22;7588;62.368;25.902;2022-07-06T05:58:18;24.00;84.60
14985;DHT22;7588;62.368;25.902;2022-07-06T06:00:44;24.20;83.00
14985;DHT22;7588;62.368;25.902;2022-07-06T06:03:10;24.50;81.30
14985;DHT22;7588;62.368;25.902;2022-07-06T06:05:36;23.90;83.30
14985;DHT22;7588;62.368;25.902;2022-07-06T06:08:02;23.40;87.30
14985;DHT22;7588;62.368;25.902;2022-07-06T06:10:28;23.90;86.40
14985;DHT22;7588;62.368;25.902;2022-07-06T06:12:53;24.10;85.40
14985;DHT22;7588;62.368;25.902;2022-07-06T06:15:19;25.00;79.20
14985;DHT22;7588;62.368;25.902;2022-07-06T06:17:45;24.90;81.10
14985;DHT22;7588;62.368;25.902;2022-07-06T06:20:13;25.20;76.80
14985;DHT22;7588;62.368;25.902;2022-07-06T06:25:15;25.90;74.70
14985;DHT22;7588;62.368;25.902;2022-07-06T06:27:41;25.50;75.60
14985;DHT22;7588;62.368;25.902;2022-07-06T06:30:07;23.80;77.10
14985;DHT22;7588;62.368;25.902;2022-07-06T06:32:33;22.30;82.70
14985;DHT22;7588;62.368;25.902;2022-07-06T06:34:59;21.40;91.30
14985;DHT22;7588;62.368;25.902;2022-07-06T06:37:25;20.50;95.70
14985;DHT22;7588;62.368;25.902;2022-07-06T06:39:51;20.10;97.80
14985;DHT22;7588;62.368;25.902;2022-07-06T06:42:16;19.80;98.90
14985;DHT22;7588;62.368;25.902;2022-07-06T06:44:42;19.60;99.90
14985;DHT22;7588;62.368;25.902;2022-07-06T06:47:08;19.40;99.90
14985;DHT22;7588;62.368;25.902;2022-07-06T06:49:33;19.20;99.90
14985;DHT22;7588;62.368;25.902;2022-07-06T06:52:02;19.10;99.90
14985;DHT22;7588;62.368;25.902;2022-07-06T06:54:28;19.00;99.90
14985;DHT22;7588;62.368;25.902;2022-07-06T06:56:54;18.90;99.90
14985;DHT22;7588;62.368;25.902;2022-07-06T06:59:19;18.80;99.90
14985;DHT22;7588;62.368;25.902;2022-07-06T07:01:45;18.90;99.90
14985;DHT22;7588;62.368;25.902;2022-07-06T07:04:11;18.80;99.90
14985;DHT22;7588;62.368;25.902;2022-07-06T07:06:37;18.70;99.90
14985;DHT22;7588;62.368;25.902;2022-07-06T07:09:03;18.70;99.90
14985;DHT22;7588;62.368;25.902;2022-07-06T07:11:29;18.60;99.90
14985;DHT22;7588;62.368;25.902;2022-07-06T07:13:55;18.50;99.90
14985;DHT22;7588;62.368;25.902;2022-07-06T07:16:20;18.40;99.90
14985;DHT22;7588;62.368;25.902;2022-07-06T07:18:46;18.30;99.90
14985;DHT22;7588;62.368;25.902;2022-07-06T07:21:12;18.30;99.90
14985;DHT22;7588;62.368;25.902;2022-07-06T07:23:37;18.30;99.90
14985;DHT22;7588;62.368;25.902;2022-07-06T07:26:03;18.90;99.90
14985;DHT22;7588;62.368;25.902;2022-07-06T07:28:29;19.30;99.90
14985;DHT22;7588;62.368;25.902;2022-07-06T07:30:55;19.30;99.90
14985;DHT22;7588;62.368;25.902;2022-07-06T07:33:20;19.20;99.90
14985;DHT22;7588;62.368;25.902;2022-07-06T07:35:46;19.20;99.90
14985;DHT22;7588;62.368;25.902;2022-07-06T07:38:12;19.10;99.90
14985;DHT22;7588;62.368;25.902;2022-07-06T07:40:37;19.10;99.90
14985;DHT22;7588;62.368;25.902;2022-07-06T07:43:03;19.20;99.90
14985;DHT22;7588;62.368;25.902;2022-07-06T07:45:29;19.50;99.90
14985;DHT22;7588;62.368;25.902;2022-07-06T07:47:55;19.50;99.90
14985;DHT22;7588;62.368;25.902;2022-07-06T07:50:20;19.60;99.90
14985;DHT22;7588;62.368;25.902;2022-07-06T07:52:46;19.60;99.90
14985;DHT22;7588;62.368;25.902;2022-07-06T07:55:12;19.70;99.90
14985;DHT22;7588;62.368;25.902;2022-07-06T07:57:38;19.80;99.90
14985;DHT22;7588;62.368;25.902;2022-07-06T08:00:04;19.70;99.90
14985;DHT22;7588;62.368;25.902;2022-07-06T08:02:30;19.60;99.90
14985;DHT22;7588;62.368;25.902;2022-07-06T08:04:56;19.40;99.90
14985;DHT22;7588;62.368;25.902;2022-07-06T08:07:22;19.10;99.90
14985;DHT22;7588;62.368;25.902;2022-07-06T08:09:48;18.90;99.90
14985;DHT22;7588;62.368;25.902;2022-07-06T08:12:13;18.30;99.90
14985;DHT22;7588;62.368;25.902;2022-07-06T08:14:39;17.60;99.90
14985;DHT22;7588;62.368;25.902;2022-07-06T08:17:05;17.00;99.90
14985;DHT22;7588;62.368;25.902;2022-07-06T08:19:31;16.60;99.90
14985;DHT22;7588;62.368;25.902;2022-07-06T08:21:57;16.30;99.90
14985;DHT22;7588;62.368;25.902;2022-07-06T08:24:23;16.00;99.90
14985;DHT22;7588;62.368;25.902;2022-07-06T08:26:49;15.70;99.90
14985;DHT22;7588;62.368;25.902;2022-07-06T08:29:14;15.60;99.90
14985;DHT22;7588;62.368;25.902;2022-07-06T08:31:40;15.60;99.90
14985;DHT22;7588;62.368;25.902;2022-07-06T08:34:06;15.50;99.90
14985;DHT22;7588;62.368;25.902;2022-07-06T08:36:32;15.60;99.90
14985;DHT22;7588;62.368;25.902;2022-07-06T08:38:58;15.50;99.90
14985;DHT22;7588;62.368;25.902;2022-07-06T08:41:26;15.50;99.90
14985;DHT22;7588;62.368;25.902;2022-07-06T08:43:53;15.50;99.90
14985;DHT22;7588;62.368;25.902;2022-07-06T08:46:20;15.50;99.90
14985;DHT22;7588;62.368;25.902;2022-07-06T08:48:48;15.60;99.90
14985;DHT22;7588;62.368;25.902;2022-07-06T08:51:14;15.70;99.90
14985;DHT22;7588;62.368;25.902;2022-07-06T08:53:44;15.70;99.90
14985;DHT22;7588;62.368;25.902;2022-07-06T08:56:10;16.20;99.90
14985;DHT22;7588;62.368;25.902;2022-07-06T08:58:37;16.40;99.90
14985;DHT22;7588;62.368;25.902;2022-07-06T09:01:06;16.50;99.90
14985;DHT22;7588;62.368;25.902;2022-07-06T09:03:34;16.50;99.90
14985;DHT22;7588;62.368;25.902;2022-07-06T09:06:02;16.50;99.90
14985;DHT22;7588;62.368;25.902;2022-07-06T09:08:30;16.50;99.90
14985;DHT22;7588;62.368;25.902;2022-07-06T09:10:57;16.60;99.90
14985;DHT22;7588;62.368;25.902;2022-07-06T09:13:23;16.80;99.90
14985;DHT22;7588;62.368;25.902;2022-07-06T09:15:48;17.30;99.90
14985;DHT22;7588;62.368;25.902;2022-07-06T09:18:14;17.70;99.90
14985;DHT22;7588;62.368;25.902;2022-07-06T09:20:41;18.30;99.90
14985;DHT22;7588;62.368;25.902;2022-07-06T09:23:07;18.80;99.90
14985;DHT22;7588;62.368;25.902;2022-07-06T09:25:34;19.40;99.90
14985;DHT22;7588;62.368;25.902;2022-07-06T09:28:01;19.70;99.90
14985;DHT22;7588;62.368;25.902;2022-07-06T09:30:28;19.80;99.90
14985;DHT22;7588;62.368;25.902;2022-07-06T09:32:55;19.90;99.90
14985;DHT22;7588;62.368;25.902;2022-07-06T09:35:29;20.10;99.90
14985;DHT22;7588;62.368;25.902;2022-07-06T09:40:44;19.60;99.90
14985;DHT22;7588;62.368;25.902;2022-07-06T09:43:23;19.40;99.90
14985;DHT22;7588;62.368;25.902;2022-07-06T09:45:53;19.10;99.90
14985;DHT22;7588;62.368;25.902;2022-07-06T09:48:24;19.00;99.90
14985;DHT22;7588;62.368;25.902;2022-07-06T09:50:50;18.90;99.90
14985;DHT22;7588;62.368;25.902;2022-07-06T09:53:17;18.80;99.90
14985;DHT22;7588;62.368;25.902;2022-07-06T09:55:45;18.70;99.90
14985;DHT22;7588;62.368;25.902;2022-07-06T09:58:14;18.60;99.90
14985;DHT22;7588;62.368;25.902;2022-07-06T10:00:41;18.60;99.90
14985;DHT22;7588;62.368;25.902;2022-07-06T10:03:07;18.60;99.90
14985;DHT22;7588;62.368;25.902;2022-07-06T10:05:39;19.20;99.90
14985;DHT22;7588;62.368;25.902;2022-07-06T10:08:06;20.00;99.90
14985;DHT22;7588;62.368;25.902;2022-07-06T10:10:35;20.60;99.90
14985;DHT22;7588;62.368;25.902;2022-07-06T10:13:01;20.80;99.90
14985;DHT22;7588;62.368;25.902;2022-07-06T10:15:30;21.10;99.90
14985;DHT22;7588;62.368;25.902;2022-07-06T10:18:00;21.40;99.90
14985;DHT22;7588;62.368;25.902;2022-07-06T10:20:32;21.50;99.90
14985;DHT22;7588;62.368;25.902;2022-07-06T10:23:02;21.50;99.90
14985;DHT22;7588;62.368;25.902;2022-07-06T10:25:28;21.70;99.90
14985;DHT22;7588;62.368;25.902;2022-07-06T10:27:54;21.70;99.90
14985;DHT22;7588;62.368;25.902;2022-07-06T10:30:21;21.70;99.90
14985;DHT22;7588;62.368;25.902;2022-07-06T10:32:49;21.50;99.90
14985;DHT22;7588;62.368;25.902;2022-07-06T10:35:16;21.80;99.90
14985;DHT22;7588;62.368;25.902;2022-07-06T10:37:44;22.10;99.50
14985;DHT22;7588;62.368;25.902;2022-07-06T10:40:13;22.30;94.80
14985;DHT22;7588;62.368;25.902;2022-07-06T10:43:02;22.20;99.30
14985;DHT22;7588;62.368;25.902;2022-07-06T10:50:46;22.50;95.40
14985;DHT22;7588;62.368;25.902;2022-07-06T10:53:35;22.10;92.30
14985;DHT22;7588;62.368;25.902;2022-07-06T10:56:04;22.00;92.50
14985;DHT22;7588;62.368;25.902;2022-07-06T11:01:09;22.90;91.10
14985;DHT22;7588;62.368;25.902;2022-07-06T11:03:45;22.50;85.70
14985;DHT22;7588;62.368;25.902;2022-07-06T11:06:23;22.40;90.80
14985;DHT22;7588;62.368;25.902;2022-07-06T11:08:53;22.20;88.70
14985;DHT22;7588;62.368;25.902;2022-07-06T11:24:11;22.80;89.20
14985;DHT22;7588;62.368;25.902;2022-07-06T11:26:37;22.60;90.60
14985;DHT22;7588;62.368;25.902;2022-07-06T11:29:05;22.90;95.80
14985;DHT22;7588;62.368;25.902;2022-07-06T11:31:36;23.00;89.40
14985;DHT22;7588;62.368;25.902;2022-07-06T11:34:04;23.00;86.00
14985;DHT22;7588;62.368;25.902;2022-07-06T11:36:31;22.90;80.30
14985;DHT22;7588;62.368;25.902;2022-07-06T11:38:57;23.00;83.90
14985;DHT22;7588;62.368;25.902;2022-07-06T11:41:23;23.30;79.50
14985;DHT22;7588;62.368;25.902;2022-07-06T11:43:49;23.10;77.80
14985;DHT22;7588;62.368;25.902;2022-07-06T11:46:21;23.00;81.90
14985;DHT22;7588;62.368;25.902;2022-07-06T11:48:52;23.30;80.00
14985;DHT22;7588;62.368;25.902;2022-07-06T11:51:19;23.30;78.60
14985;DHT22;7588;62.368;25.902;2022-07-06T11:53:51;22.90;77.60
14985;DHT22;7588;62.368;25.902;2022-07-06T11:56:17;22.50;77.20
14985;DHT22;7588;62.368;25.902;2022-07-06T11:58:57;22.40;80.00
14985;DHT22;7588;62.368;25.902;2022-07-06T12:01:24;22.60;79.00
14985;DHT22;7588;62.368;25.902;2022-07-06T12:03:51;22.70;76.80
14985;DHT22;7588;62.368;25.902;2022-07-06T12:06:23;22.50;80.80
14985;DHT22;7588;62.368;25.902;2022-07-06T12:08:50;22.10;81.50
14985;DHT22;7588;62.368;25.902;2022-07-06T12:11:29;21.70;80.80
14985;DHT22;7588;62.368;25.902;2022-07-06T12:14:01;21.40;85.80
14985;DHT22;7588;62.368;25.902;2022-07-06T12:16:31;21.20;86.00
14985;DHT22;7588;62.368;25.902;2022-07-06T12:19:00;21.00;84.80
14985;DHT22;7588;62.368;25.902;2022-07-06T12:21:26;20.90;88.80
14985;DHT22;7588;62.368;25.902;2022-07-06T12:23:54;20.80;89.60
14985;DHT22;7588;62.368;25.902;2022-07-06T12:26:21;20.80;91.20
14985;DHT22;7588;62.368;25.902;2022-07-06T12:29:01;20.70;92.00
14985;DHT22;7588;62.368;25.902;2022-07-06T12:31:38;21.10;92.60
14985;DHT22;7588;62.368;25.902;2022-07-06T12:34:23;21.90;91.20
14985;DHT22;7588;62.368;25.902;2022-07-06T12:36:57;22.40;92.10
14985;DHT22;7588;62.368;25.902;2022-07-06T12:39:27;23.20;90.60
14985;DHT22;7588;62.368;25.902;2022-07-06T12:41:56;23.80;85.90
14985;DHT22;7588;62.368;25.902;2022-07-06T12:44:26;23.60;85.10
14985;DHT22;7588;62.368;25.902;2022-07-06T12:47:09;23.00;87.10
14985;DHT22;7588;62.368;25.902;2022-07-06T12:49:39;22.80;85.60
14985;DHT22;7588;62.368;25.902;2022-07-06T12:52:16;22.50;89.10
14985;DHT22;7588;62.368;25.902;2022-07-06T12:54:50;22.60;89.60
14985;DHT22;7588;62.368;25.902;2022-07-06T12:57:20;23.20;87.70
14985;DHT22;7588;62.368;25.902;2022-07-06T12:59:56;23.80;83.30
14985;DHT22;7588;62.368;25.902;2022-07-06T13:02:31;24.20;83.80
14985;DHT22;7588;62.368;25.902;2022-07-06T13:05:11;24.00;85.60
14985;DHT22;7588;62.368;25.902;2022-07-06T13:07:42;24.20;80.40
14985;DHT22;7588;62.368;25.902;2022-07-06T13:10:11;24.40;78.50
14985;DHT22;7588;62.368;25.902;2022-07-06T13:12:38;24.50;78.20
14985;DHT22;7588;62.368;25.902;2022-07-06T13:15:08;24.60;79.40
14985;DHT22;7588;62.368;25.902;2022-07-06T13:17:34;24.80;81.40
14985;DHT22;7588;62.368;25.902;2022-07-06T13:20:00;24.60;73.40
14985;DHT22;7588;62.368;25.902;2022-07-06T13:22:26;24.50;75.10
14985;DHT22;7588;62.368;25.902;2022-07-06T13:24:51;24.70;76.90
14985;DHT22;7588;62.368;25.902;2022-07-06T13:27:17;24.90;77.20
14985;DHT22;7588;62.368;25.902;2022-07-06T13:29:43;24.60;74.70
14985;DHT22;7588;62.368;25.902;2022-07-06T13:32:09;24.20;73.00
14985;DHT22;7588;62.368;25.902;2022-07-06T13:34:35;23.60;76.00
14985;DHT22;7588;62.368;25.902;2022-07-06T13:37:01;23.30;73.50
14985;DHT22;7588;62.368;25.902;2022-07-06T13:39:27;23.00;74.10
14985;DHT22;7588;62.368;25.902;2022-07-06T13:41:54;22.60;75.30
14985;DHT22;7588;62.368;25.902;2022-07-06T13:44:20;21.90;77.90
14985;DHT22;7588;62.368;25.902;2022-07-06T13:46:46;21.50;80.30
14985;DHT22;7588;62.368;25.902;2022-07-06T13:49:12;21.60;81.90
14985;DHT22;7588;62.368;25.902;2022-07-06T13:51:38;21.60;82.50
14985;DHT22;7588;62.368;25.902;2022-07-06T13:54:04;21.30;83.90
14985;DHT22;7588;62.368;25.902;2022-07-06T13:56:30;21.20;82.10
14985;DHT22;7588;62.368;25.902;2022-07-06T13:58:56;21.20;86.30
14985;DHT22;7588;62.368;25.902;2022-07-06T14:01:22;21.00;86.30
14985;DHT22;7588;62.368;25.902;2022-07-06T14:03:49;20.90;87.40
14985;DHT22;7588;62.368;25.902;2022-07-06T14:06:15;20.90;88.40
14985;DHT22;7588;62.368;25.902;2022-07-06T14:08:42;21.00;89.30
14985;DHT22;7588;62.368;25.902;2022-07-06T14:11:08;21.00;87.90
14985;DHT22;7588;62.368;25.902;2022-07-06T14:13:36;21.20;86.00
14985;DHT22;7588;62.368;25.902;2022-07-06T14:16:03;21.40;83.30
14985;DHT22;7588;62.368;25.902;2022-07-06T14:18:30;21.50;84.30
14985;DHT22;7588;62.368;25.902;2022-07-06T14:20:56;21.60;84.60
14985;DHT22;7588;62.368;25.902;2022-07-06T14:23:22;21.70;86.80
14985;DHT22;7588;62.368;25.902;2022-07-06T14:25:49;21.50;83.90
14985;DHT22;7588;62.368;25.902;2022-07-06T14:28:16;21.40;87.70
14985;DHT22;7588;62.368;25.902;2022-07-06T14:30:43;21.20;85.50
14985;DHT22;7588;62.368;25.902;2022-07-06T14:33:10;21.00;88.10
14985;DHT22;7588;62.368;25.902;2022-07-06T14:35:42;20.70;89.80
14985;DHT22;7588;62.368;25.902;2022-07-06T14:38:08;20.60;89.90
14985;DHT22;7588;62.368;25.902;2022-07-06T14:40:35;20.50;90.60
14985;DHT22;7588;62.368;25.902;2022-07-06T14:43:01;20.50;88.50
14985;DHT22;7588;62.368;25.902;2022-07-06T14:45:27;20.60;88.10
14985;DHT22;7588;62.368;25.902;2022-07-06T14:47:53;20.50;88.00
14985;DHT22;7588;62.368;25.902;2022-07-06T14:50:20;20.50;90.00
14985;DHT22;7588;62.368;25.902;2022-07-06T14:52:45;20.50;90.00
14985;DHT22;7588;62.368;25.902;2022-07-06T14:55:12;20.60;89.00
14985;DHT22;7588;62.368;25.902;2022-07-06T14:57:37;20.60;87.30
14985;DHT22;7588;62.368;25.902;2022-07-06T15:00:04;20.40;89.60
14985;DHT22;7588;62.368;25.902;2022-07-06T15:02:30;20.20;90.50
14985;DHT22;7588;62.368;25.902;2022-07-06T15:04:56;20.10;90.70
14985;DHT22;7588;62.368;25.902;2022-07-06T15:07:22;20.10;91.40
14985;DHT22;7588;62.368;25.902;2022-07-06T15:09:48;20.10;92.60
14985;DHT22;7588;62.368;25.902;2022-07-06T15:12:13;20.10;92.10
14985;DHT22;7588;62.368;25.902;2022-07-06T15:14:39;20.10;93.60
14985;DHT22;7588;62.368;25.902;2022-07-06T15:17:05;20.00;97.40
14985;DHT22;7588;62.368;25.902;2022-07-06T15:19:31;20.00;98.50
14985;DHT22;7588;62.368;25.902;2022-07-06T15:21:57;20.00;99.20
14985;DHT22;7588;62.368;25.902;2022-07-06T15:24:23;19.90;99.90
14985;DHT22;7588;62.368;25.902;2022-07-06T15:26:50;20.00;99.90
14985;DHT22;7588;62.368;25.902;2022-07-06T15:29:16;20.00;99.90
14985;DHT22;7588;62.368;25.902;2022-07-06T15:31:42;19.90;99.90
14985;DHT22;7588;62.368;25.902;2022-07-06T15:34:08;19.80;99.90
14985;DHT22;7588;62.368;25.902;2022-07-06T15:36:33;19.60;99.90
14985;DHT22;7588;62.368;25.902;2022-07-06T15:38:59;19.60;99.90
14985;DHT22;7588;62.368;25.902;2022-07-06T15:41:25;19.30;98.60
14985;DHT22;7588;62.368;25.902;2022-07-06T15:43:51;19.10;98.50
14985;DHT22;7588;62.368;25.902;2022-07-06T15:46:17;19.00;98.60
14985;DHT22;7588;62.368;25.902;2022-07-06T15:48:43;18.80;99.50
14985;DHT22;7588;62.368;25.902;2022-07-06T15:51:09;18.80;99.10
14985;DHT22;7588;62.368;25.902;2022-07-06T15:53:35;18.70;99.70
14985;DHT22;7588;62.368;25.902;2022-07-06T15:56:00;18.80;99.00